TimeWET,TemperatureF,Dew PointF,Humidity,Sea Level PressureIn,VisibilityMPH,Wind Direction,Wind SpeedMPH,Gust SpeedMPH,PrecipitationIn,Events,Conditions,WindDirDegrees,DateUTC
12:00 AM,45,42,83,29.97,6,SSW,6.9,,,,Partly Cloudy,210,2014-02-18 00:00:00
12:00 AM,44.6,41.0,87,29.95,6.2,SSW,6.9,-,N/A,,Scattered Clouds,210,2014-02-18 00:00:00
12:30 AM,42.8,41.0,93,29.95,6.2,SSW,6.9,-,N/A,,Scattered Clouds,210,2014-02-18 00:30:00
1:00 AM,42.8,39.2,87,29.95,6.2,SW,5.8,-,N/A,,Scattered Clouds,230,2014-02-18 01:00:00
1:30 AM,42.8,39.2,87,29.95,6.2,SSW,3.5,-,N/A,,Scattered Clouds,210,2014-02-18 01:30:00
2:00 AM,42.8,39.2,87,29.95,6.2,SSW,3.5,-,N/A,,Scattered Clouds,210,2014-02-18 02:00:00
2:30 AM,41.0,39.2,93,29.95,6.2,SSW,5.8,-,N/A,,Scattered Clouds,210,2014-02-18 02:30:00
3:00 AM,42,40,88,29.98,6,SSW,5.8,,,,Partly Cloudy,200,2014-02-18 03:00:00
3:00 AM,42.8,39.2,87,29.95,6.2,SSW,5.8,-,N/A,,Scattered Clouds,200,2014-02-18 03:00:00
3:30 AM,44.6,42.8,93,29.95,6.2,SW,5.8,-,N/A,,Scattered Clouds,220,2014-02-18 03:30:00
4:00 AM,46.4,44.6,93,29.95,-9999.0,WSW,5.8,-,N/A,Rain,Heavy Rain,240,2014-02-18 04:00:00
4:30 AM,48.2,46.4,93,29.95,4.3,SSW,4.6,-,N/A,Rain,Light Rain,200,2014-02-18 04:30:00
5:00 AM,48.2,46.4,93,29.95,5.6,South,6.9,-,N/A,,Light Drizzle,170,2014-02-18 05:00:00
5:30 AM,48.2,46.4,93,29.98,5.0,South,4.6,-,N/A,Rain,Rain,180,2014-02-18 05:30:00
6:00 AM,49,47,90,30.00,4,SE,3.5,,,Rain,Rain,130,2014-02-18 06:00:00
6:00 AM,48.2,46.4,93,29.98,4.3,SE,3.5,-,N/A,Rain,Rain,130,2014-02-18 06:00:00
6:30 AM,48.2,46.4,93,29.98,-9999.0,WSW,4.6,-,N/A,Rain,Rain,240,2014-02-18 06:30:00
7:00 AM,48.2,46.4,93,30.01,3.1,SW,8.1,-,N/A,Rain,Light Rain,220,2014-02-18 07:00:00
7:30 AM,48.2,46.4,93,30.01,6.2,SSW,6.9,-,N/A,,Mostly Cloudy,210,2014-02-18 07:30:00
8:00 AM,48.2,46.4,93,30.01,5.0,South,5.8,-,N/A,,Mostly Cloudy,190,2014-02-18 08:00:00
8:30 AM,48.2,46.4,93,30.04,6.2,South,10.4,-,N/A,,Mostly Cloudy,190,2014-02-18 08:30:00
9:00 AM,49,48,95,30.07,5,SSW,9.2,,,Rain,Light Rain,210,2014-02-18 09:00:00
9:00 AM,50.0,48.2,94,30.04,5.0,SSW,9.2,-,N/A,,Mostly Cloudy,210,2014-02-18 09:00:00
9:30 AM,51.8,50.0,94,30.06,6.2,SSW,13.8,-,N/A,,Mostly Cloudy,200,2014-02-18 09:30:00
10:00 AM,53.6,50.0,88,30.06,6.2,SSW,13.8,-,N/A,,Mostly Cloudy,210,2014-02-18 10:00:00
10:30 AM,53.6,50.0,88,30.06,6.2,SSW,15.0,-,N/A,,Mostly Cloudy,210,2014-02-18 10:30:00
11:00 AM,-9999,-9999,N/A,0.00,-9999.0,North,-9999.0,-,N/A,,Mostly Cloudy,0,2014-02-18 11:00:00
11:30 AM,55.4,50.0,82,30.09,6.2,WSW,15.0,-,N/A,,Scattered Clouds,240,2014-02-18 11:30:00
12:00 PM,56,50,75,30.11,6,WSW,13.8,,,,Partly Cloudy,250,2014-02-18 12:00:00
12:00 PM,57.2,50.0,77,30.09,6.2,WSW,13.8,-,N/A,,Scattered Clouds,250,2014-02-18 12:00:00
12:30 PM,57.2,50.0,77,30.09,6.2,WSW,12.7,-,N/A,,Scattered Clouds,250,2014-02-18 12:30:00
1:00 PM,57.2,51.8,82,30.09,6.2,WSW,10.4,-,N/A,,Scattered Clouds,250,2014-02-18 13:00:00
1:30 PM,59.0,50.0,72,30.06,6.2,West,11.5,-,N/A,,Scattered Clouds,280,2014-02-18 13:30:00
2:00 PM,55.4,50.0,82,30.09,6.2,NW,16.1,-,N/A,,Scattered Clouds,320,2014-02-18 14:00:00
2:30 PM,57.2,50.0,77,30.06,6.2,NW,18.4,-,N/A,,Scattered Clouds,320,2014-02-18 14:30:00
3:00 PM,58,51,69,30.09,6,NNW,16.1,,,,Mostly Cloudy,330,2014-02-18 15:00:00
3:00 PM,59.0,50.0,72,30.06,6.2,NNW,16.1,-,N/A,,Scattered Clouds,330,2014-02-18 15:00:00
3:30 PM,59.0,50.0,72,30.09,6.2,NNW,17.3,-,N/A,,Scattered Clouds,330,2014-02-18 15:30:00
4:00 PM,59.0,50.0,72,30.09,6.2,NW,18.4,-,N/A,,Scattered Clouds,320,2014-02-18 16:00:00
4:30 PM,57.2,48.2,72,30.09,6.2,NW,19.6,-,N/A,,Scattered Clouds,320,2014-02-18 16:30:00
5:00 PM,57.2,48.2,72,30.12,6.2,NNW,19.6,-,N/A,,Scattered Clouds,330,2014-02-18 17:00:00
5:30 PM,55.4,48.2,77,30.12,6.2,NNW,16.1,-,N/A,,Scattered Clouds,340,2014-02-18 17:30:00
6:00 PM,54,47,68,30.15,6,NNW,13.8,,,,Mostly Cloudy,340,2014-02-18 18:00:00
6:00 PM,53.6,46.4,77,30.12,6.2,NNW,13.8,-,N/A,,Scattered Clouds,340,2014-02-18 18:00:00
6:30 PM,53.6,46.4,77,30.15,6.2,NNW,10.4,-,N/A,,Mostly Cloudy,340,2014-02-18 18:30:00
7:00 PM,51.8,44.6,76,30.15,6.2,NNW,9.2,-,N/A,,Mostly Cloudy,340,2014-02-18 19:00:00
7:30 PM,51.8,44.6,76,30.18,6.2,NNW,5.8,-,N/A,,Mostly Cloudy,330,2014-02-18 19:30:00
8:00 PM,50.0,44.6,82,30.18,6.2,NW,2.3,-,N/A,,Mostly Cloudy,320,2014-02-18 20:00:00
8:30 PM,50.0,44.6,82,30.21,6.2,Calm,Calm,-,N/A,,Scattered Clouds,0,2014-02-18 20:30:00
9:00 PM,47,43,81,30.24,6,Calm,Calm,,,,Partly Cloudy,,2014-02-18 21:00:00
9:00 PM,48.2,42.8,82,30.21,6.2,Calm,Calm,-,N/A,,Scattered Clouds,0,2014-02-18 21:00:00
9:30 PM,46.4,41.0,81,30.21,6.2,SW,2.3,-,N/A,,Scattered Clouds,230,2014-02-18 21:30:00
10:00 PM,46.4,42.8,87,30.21,6.2,SW,5.8,-,N/A,,Scattered Clouds,220,2014-02-18 22:00:00
10:30 PM,48.2,44.6,87,30.24,6.2,WSW,5.8,-,N/A,,Mostly Cloudy,250,2014-02-18 22:30:00
11:30 PM,44.6,42.8,93,30.21,6.2,SSW,8.1,-,N/A,,Mostly Cloudy,210,2014-02-18 23:30:00